Time;durP1;ratioP1;P1;durP2;ratioP2;P2;SDS_P1;SDS_P2;PMS_P1;PMS_P2;Temp;Humidity;BMP_temperature;BMP_pressure;BME280_temperature;BME280_humidity;BME280_pressure;Samples;Min_cycle;Max_cycle;Signal;HPM_P1;HPM_P2
2023/04/16 00:01:29;;;;;;;;;;;;;;;19.33;69.09;100388.50;7393951;19;1866;-45
2023/04/16 00:03:59;;;;;;;;;;;;;;;19.37;68.85;100403.28;7394712;19;1154;-45
2023/04/16 00:06:28;;;;;;;;;;;;;;;19.35;69.04;100401.75;7395558;19;1391;-45
2023/04/16 00:08:56;;;;;;;;;;;;;;;19.32;69.27;100402.91;7395584;19;1495;-45
2023/04/16 00:11:24;;;;;;;;;;;;;;;19.31;69.15;100406.56;7395122;19;1490;-45
2023/04/16 00:13:53;;;;;;;;;;;;;;;19.30;69.21;100394.16;7395807;19;1483;-45
2023/04/16 00:16:21;;;;;;;;;;;;;;;19.30;69.40;100404.03;7396890;19;1266;-45
2023/04/16 00:18:49;;;;;;;;;;;;;;;19.29;69.16;100416.59;7396087;19;1322;-45
2023/04/16 00:21:20;;;;;;;;;;;;;;;19.30;69.08;100409.38;7393858;19;1849;-45
2023/04/16 00:23:48;;;;;;;;;;;;;;;19.29;68.87;100411.22;7395574;19;1628;-45
2023/04/16 00:26:16;;;;;;;;;;;;;;;19.27;69.34;100402.50;7393968;19;1557;-44
2023/04/16 00:28:45;;;;;;;;;;;;;;;19.27;68.92;100399.81;7395100;19;1209;-45
2023/04/16 00:31:13;;;;;;;;;;;;;;;19.27;69.09;100405.16;7394932;19;1548;-45
2023/04/16 00:33:41;;;;;;;;;;;;;;;19.19;69.29;100407.75;7394734;19;1878;-45
2023/04/16 00:36:10;;;;;;;;;;;;;;;19.21;69.26;100405.75;7394855;19;1217;-45
2023/04/16 00:38:41;;;;;;;;;;;;;;;19.23;69.09;100412.66;7394689;19;1277;-45
2023/04/16 00:41:10;;;;;;;;;;;;;;;19.21;69.39;100406.59;7392969;19;1856;-45
2023/04/16 00:43:38;;;;;;;;;;;;;;;19.22;69.53;100404.78;7392460;19;1541;-45
2023/04/16 00:46:06;;;;;;;;;;;;;;;19.26;69.05;100409.69;7395029;19;1285;-45
2023/04/16 00:48:35;;;;;;;;;;;;;;;19.28;69.19;100401.50;7395520;19;1554;-45
2023/04/16 00:51:04;;;;;;;;;;;;;;;19.25;69.29;100410.66;7395433;19;1142;-45
2023/04/16 00:53:33;;;;;;;;;;;;;;;19.22;69.26;100396.75;7395153;19;1126;-45
2023/04/16 00:56:04;;;;;;;;;;;;;;;19.20;69.31;100399.56;7393483;19;1764;-45
2023/04/16 00:58:33;;;;;;;;;;;;;;;19.16;69.54;100399.97;7395136;19;1632;-45
2023/04/16 01:01:01;;;;;;;;;;;;;;;19.21;69.42;100392.34;7401342;19;1849;-45
2023/04/16 01:03:36;;;;;;;;;;;;;;;19.18;69.17;100412.25;7401990;19;1257;-45
2023/04/16 01:06:04;;;;;;;;;;;;;;;19.17;69.57;100393.63;7401276;19;1865;-45
2023/04/16 01:08:33;;;;;;;;;;;;;;;19.20;69.39;100404.06;7401594;19;1976;-45
2023/04/16 01:11:03;;;;;;;;;;;;;;;19.24;69.22;100397.44;7401746;19;1513;-45
2023/04/16 01:13:32;;;;;;;;;;;;;;;19.22;69.41;100408.28;7400232;19;1176;-45
2023/04/16 01:16:01;;;;;;;;;;;;;;;19.18;69.45;100393.50;7401066;19;1265;-45
2023/04/16 01:18:29;;;;;;;;;;;;;;;19.15;69.62;100380.38;7400459;19;1225;-45
2023/04/16 01:21:00;;;;;;;;;;;;;;;19.14;69.57;100389.41;7402044;19;1250;-45
2023/04/16 01:23:28;;;;;;;;;;;;;;;19.13;69.55;100386.88;7400772;19;1532;-45
2023/04/16 01:25:56;;;;;;;;;;;;;;;19.15;69.52;100407.19;7400302;19;1623;-44
2023/04/16 01:28:25;;;;;;;;;;;;;;;19.12;69.25;100401.25;7400987;19;1249;-45
2023/04/16 01:30:53;;;;;;;;;;;;;;;19.11;69.08;100383.50;7399737;19;1558;-45
2023/04/16 01:33:22;;;;;;;;;;;;;;;19.11;69.38;100394.22;7400981;19;1603;-45
2023/04/16 01:35:51;;;;;;;;;;;;;;;19.10;69.28;100396.06;7400536;19;1147;-45
2023/04/16 01:38:22;;;;;;;;;;;;;;;19.06;69.29;100398.19;7400002;19;1482;-45
2023/04/16 01:40:50;;;;;;;;;;;;;;;19.16;68.97;100405.34;7401222;19;1620;-45
2023/04/16 01:43:18;;;;;;;;;;;;;;;18.96;69.99;100407.22;7398468;19;1853;-45
2023/04/16 01:45:46;;;;;;;;;;;;;;;19.27;69.41;100405.16;7399911;19;1557;-45
2023/04/16 01:48:15;;;;;;;;;;;;;;;20.11;66.97;100390.78;7400709;19;1174;-45
2023/04/16 01:50:43;;;;;;;;;;;;;;;20.55;65.66;100396.28;7399227;19;1510;-45
2023/04/16 01:53:11;;;;;;;;;;;;;;;20.71;65.40;100395.59;7399663;19;1702;-45
2023/04/16 01:55:42;;;;;;;;;;;;;;;20.72;65.41;100396.44;7399451;19;1524;-44
2023/04/16 01:58:12;;;;;;;;;;;;;;;20.83;65.53;100409.59;7398754;19;1558;-45
2023/04/16 02:00:40;;;;;;;;;;;;;;;20.97;64.86;100398.31;7398869;19;1296;-45
2023/04/16 02:03:09;;;;;;;;;;;;;;;20.92;64.98;100408.66;7398477;19;1864;-45
2023/04/16 02:05:37;;;;;;;;;;;;;;;20.83;65.19;100409.59;7399266;19;1619;-45
2023/04/16 02:08:06;;;;;;;;;;;;;;;20.76;65.69;100403.19;7400253;19;1525;-45
2023/04/16 02:10:34;;;;;;;;;;;;;;;20.76;65.61;100405.88;7399585;19;1517;-45
2023/04/16 02:13:05;;;;;;;;;;;;;;;20.74;65.74;100400.63;7399847;19;1451;-45
2023/04/16 02:15:33;;;;;;;;;;;;;;;20.80;65.56;100383.06;7400849;19;1249;-44
2023/04/16 02:18:01;;;;;;;;;;;;;;;20.76;65.74;100387.06;7399205;19;1828;-45
2023/04/16 02:20:29;;;;;;;;;;;;;;;20.78;65.57;100387.75;7399020;19;1597;-44
2023/04/16 02:22:58;;;;;;;;;;;;;;;20.77;65.53;100394.97;7397459;19;1855;-44
2023/04/16 02:25:26;;;;;;;;;;;;;;;20.71;65.77;100384.84;7399118;19;1545;-45
2023/04/16 02:27:54;;;;;;;;;;;;;;;20.75;65.69;100396.09;7397272;19;1256;-44
2023/04/16 02:30:26;;;;;;;;;;;;;;;20.24;65.88;100296.47;7398025;19;1525;-45
2023/04/16 02:32:54;;;;;;;;;;;;;;;20.80;65.59;100396.50;7396081;19;1522;-45
2023/04/16 02:35:22;;;;;;;;;;;;;;;20.83;65.48;100388.97;7397528;19;1261;-44
2023/04/16 02:37:51;;;;;;;;;;;;;;;20.81;65.58;100382.03;7398284;19;1463;-44
2023/04/16 02:40:19;;;;;;;;;;;;;;;20.84;65.46;100385.25;7399807;19;1253;-44
2023/04/16 02:42:47;;;;;;;;;;;;;;;20.83;65.65;100372.84;7397602;19;1848;-45
2023/04/16 02:45:16;;;;;;;;;;;;;;;20.82;65.46;100386.44;7398075;19;1253;-45
2023/04/16 02:47:47;;;;;;;;;;;;;;;20.86;65.28;100390.47;7398117;19;1561;-45
2023/04/16 02:50:15;;;;;;;;;;;;;;;20.86;65.55;100379.72;7398300;19;1502;-44
2023/04/16 02:52:43;;;;;;;;;;;;;;;20.89;65.29;100383.94;7398070;19;1383;-44
2023/04/16 02:55:13;;;;;;;;;;;;;;;20.84;65.54;100379.06;7397938;19;1458;-44
2023/04/16 02:57:41;;;;;;;;;;;;;;;20.85;65.48;100389.66;7398461;19;1186;-45
2023/04/16 03:00:10;;;;;;;;;;;;;;;20.92;65.32;100370.19;7398126;19;1490;-44
2023/04/16 03:02:38;;;;;;;;;;;;;;;20.92;65.44;100375.56;7397454;19;1863;-44
2023/04/16 03:05:10;;;;;;;;;;;;;;;20.92;65.17;100389.03;7397013;19;1475;-44
2023/04/16 03:07:39;;;;;;;;;;;;;;;20.91;65.50;100372.06;7398054;19;1488;-44
2023/04/16 03:10:09;;;;;;;;;;;;;;;20.93;65.25;100383.50;7396887;19;1401;-44
2023/04/16 03:12:38;;;;;;;;;;;;;;;20.90;65.41;100383.78;7396858;19;1612;-44
2023/04/16 03:15:06;;;;;;;;;;;;;;;20.96;65.41;100387.69;7397220;19;1170;-44
2023/04/16 03:17:35;;;;;;;;;;;;;;;20.95;65.20;100386.88;7398289;19;1557;-45
2023/04/16 03:20:03;;;;;;;;;;;;;;;20.99;65.34;100399.00;7396074;19;1250;-44
2023/04/16 03:22:34;;;;;;;;;;;;;;;21.00;65.39;100387.22;7394888;19;1832;-45
2023/04/16 03:25:02;;;;;;;;;;;;;;;21.05;65.11;100392.97;7396590;19;1822;-45
2023/04/16 03:27:31;;;;;;;;;;;;;;;21.06;65.08;100375.00;7395246;19;1213;-44
2023/04/16 03:29:59;;;;;;;;;;;;;;;21.11;65.14;100391.50;7397321;19;1628;-45
2023/04/16 03:32:27;;;;;;;;;;;;;;;21.05;65.20;100387.59;7396878;19;1482;-44
2023/04/16 03:34:56;;;;;;;;;;;;;;;21.11;65.02;100386.13;7397456;19;1071;-44
2023/04/16 03:37:24;;;;;;;;;;;;;;;21.13;64.86;100391.31;7396248;19;1201;-45
2023/04/16 03:39:55;;;;;;;;;;;;;;;21.09;65.08;100385.44;7396078;19;1222;-44
2023/04/16 03:42:23;;;;;;;;;;;;;;;21.13;65.25;100388.63;7396429;19;1855;-44
2023/04/16 03:44:52;;;;;;;;;;;;;;;21.17;64.88;100398.94;7396177;19;1214;-44
2023/04/16 03:47:20;;;;;;;;;;;;;;;21.18;64.65;100381.78;7394973;19;1296;-44
2023/04/16 03:49:49;;;;;;;;;;;;;;;21.17;64.79;100390.88;7393711;19;1273;-45
2023/04/16 03:52:18;;;;;;;;;;;;;;;21.12;64.86;100384.28;7395161;19;1165;-44
2023/04/16 03:54:46;;;;;;;;;;;;;;;21.13;65.03;100389.50;7395992;19;1973;-44
2023/04/16 03:57:17;;;;;;;;;;;;;;;21.16;64.89;100377.56;7395843;19;1205;-44
2023/04/16 03:59:45;;;;;;;;;;;;;;;21.14;64.86;100390.34;7394710;19;1191;-44
2023/04/16 04:02:13;;;;;;;;;;;;;;;20.88;65.58;100395.72;7395646;19;1856;-45
2023/04/16 04:04:42;;;;;;;;;;;;;;;20.81;65.84;100400.84;7396162;19;1451;-45
2023/04/16 04:07:10;;;;;;;;;;;;;;;20.73;65.69;100390.03;7395992;19;1675;-44
2023/04/16 04:09:38;;;;;;;;;;;;;;;20.36;66.77;100412.53;7397143;19;1103;-44
2023/04/16 04:12:06;;;;;;;;;;;;;;;20.12;67.40;100389.81;7396028;19;1850;-44
2023/04/16 04:14:38;;;;;;;;;;;;;;;19.92;68.19;100405.19;7396007;19;1662;-45
2023/04/16 04:17:07;;;;;;;;;;;;;;;19.79;68.41;100393.97;7395398;19;1473;-45
2023/04/16 04:19:35;;;;;;;;;;;;;;;19.83;68.33;100406.91;7396072;19;1625;-45
2023/04/16 04:22:03;;;;;;;;;;;;;;;19.92;67.75;100390.94;7392424;19;1842;-45
2023/04/16 04:24:31;;;;;;;;;;;;;;;19.96;67.84;100400.38;7392423;19;1598;-45
2023/04/16 04:27:00;;;;;;;;;;;;;;;19.84;68.08;100408.63;7388954;19;1098;-44
2023/04/16 04:29:28;;;;;;;;;;;;;;;19.89;67.03;100401.97;7386918;19;1519;-45
2023/04/16 04:31:59;;;;;;;;;;;;;;;19.73;67.85;100406.13;7388662;19;1298;-45
2023/04/16 04:34:28;;;;;;;;;;;;;;;19.75;68.07;100404.16;7390290;19;1497;-45
2023/04/16 04:36:56;;;;;;;;;;;;;;;19.60;68.29;100424.41;7391997;19;1586;-46
2023/04/16 04:39:25;;;;;;;;;;;;;;;19.62;68.49;100414.38;7399137;19;1482;-45
2023/04/16 04:41:53;;;;;;;;;;;;;;;19.66;68.45;100415.75;7397732;19;1131;-45
2023/04/16 04:44:21;;;;;;;;;;;;;;;19.62;68.51;100415.19;7395443;19;1874;-45
2023/04/16 04:46:49;;;;;;;;;;;;;;;19.57;68.90;100414.78;7401867;19;1558;-45
2023/04/16 04:49:20;;;;;;;;;;;;;;;19.67;68.94;100412.06;7401981;19;1481;-45
2023/04/16 04:51:49;;;;;;;;;;;;;;;20.02;67.62;100421.25;7401067;19;1407;-45
2023/04/16 04:54:18;;;;;;;;;;;;;;;20.03;67.58;100417.56;7401680;19;1321;-45
2023/04/16 04:56:46;;;;;;;;;;;;;;;20.16;66.89;100418.03;7401060;19;1257;-45
2023/04/16 04:59:15;;;;;;;;;;;;;;;19.77;67.73;100434.34;7401514;19;1273;-45
2023/04/16 05:01:43;;;;;;;;;;;;;;;19.59;68.20;100417.31;7401383;19;1957;-45
2023/04/16 05:04:11;;;;;;;;;;;;;;;19.50;68.74;100426.25;7398783;19;1859;-45
2023/04/16 05:06:42;;;;;;;;;;;;;;;19.44;68.65;100425.88;7400285;19;1119;-45
2023/04/16 05:09:11;;;;;;;;;;;;;;;19.54;67.94;100420.47;7400499;19;1186;-45
2023/04/16 05:11:39;;;;;;;;;;;;;;;19.58;68.17;100431.75;7401384;19;1545;-45
2023/04/16 05:14:08;;;;;;;;;;;;;;;19.60;68.76;100424.41;7401586;19;1503;-44
2023/04/16 05:16:37;;;;;;;;;;;;;;;19.84;67.80;100422.03;7400900;19;1304;-44
2023/04/16 05:19:06;;;;;;;;;;;;;;;20.00;67.31;100428.59;7400594;19;1510;-45
2023/04/16 05:21:35;;;;;;;;;;;;;;;20.01;67.07;100430.28;7401150;19;1254;-44
2023/04/16 05:24:06;;;;;;;;;;;;;;;19.84;67.33;100438.16;7398048;19;1868;-44
2023/04/16 05:26:34;;;;;;;;;;;;;;;19.83;67.68;100425.69;7397696;19;1494;-45
2023/04/16 05:29:03;;;;;;;;;;;;;;;19.67;68.07;100433.53;7399679;19;1400;-44
2023/04/16 05:31:31;;;;;;;;;;;;;;;19.86;67.05;100432.63;7399581;19;1453;-44
2023/04/16 05:33:59;;;;;;;;;;;;;;;19.68;68.20;100436.06;7397969;19;1274;-44
2023/04/16 05:36:28;;;;;;;;;;;;;;;19.64;68.23;100431.16;7398569;19;1457;-44
2023/04/16 05:38:56;;;;;;;;;;;;;;;19.71;68.54;100432.25;7397510;19;1367;-45
2023/04/16 05:41:27;;;;;;;;;;;;;;;19.81;68.37;100424.19;7397783;19;1370;-44
2023/04/16 05:43:55;;;;;;;;;;;;;;;19.79;67.92;100421.63;7395639;19;1860;-44
2023/04/16 05:46:24;;;;;;;;;;;;;;;19.63;68.75;100418.72;7397271;19;1417;-45
2023/04/16 05:48:52;;;;;;;;;;;;;;;19.54;69.11;100439.25;7397733;19;1191;-45
2023/04/16 05:51:21;;;;;;;;;;;;;;;19.53;69.10;100417.91;7397942;19;1588;-44
2023/04/16 05:53:50;;;;;;;;;;;;;;;19.52;68.80;100426.94;7397915;19;1470;-44
2023/04/16 05:56:18;;;;;;;;;;;;;;;19.59;68.68;100415.47;7399378;19;1217;-45
2023/04/16 05:58:49;;;;;;;;;;;;;;;19.63;69.37;100422.25;7398081;19;1378;-44
2023/04/16 06:01:17;;;;;;;;;;;;;;;20.37;67.67;100414.22;7399176;19;1573;-44
2023/04/16 06:03:45;;;;;;;;;;;;;;;21.00;65.84;100415.94;7396182;19;1861;-44
2023/04/16 06:06:14;;;;;;;;;;;;;;;21.15;65.26;100410.81;7390975;19;1556;-45
2023/04/16 06:08:42;;;;;;;;;;;;;;;20.76;66.50;100419.31;7397914;19;1474;-45
2023/04/16 06:11:10;;;;;;;;;;;;;;;20.35;67.44;100406.34;7395581;19;1379;-44
2023/04/16 06:13:39;;;;;;;;;;;;;;;20.59;67.25;100405.75;7396406;19;1216;-44
2023/04/16 06:16:10;;;;;;;;;;;;;;;20.81;66.28;100395.47;7398680;19;1087;-44
2023/04/16 06:18:38;;;;;;;;;;;;;;;21.11;65.71;100417.53;7396711;19;1330;-44
2023/04/16 06:21:06;;;;;;;;;;;;;;;21.33;65.05;100411.63;7396792;19;1284;-44
2023/04/16 06:23:35;;;;;;;;;;;;;;;21.48;64.63;100392.22;7395951;19;1845;-44
2023/04/16 06:26:03;;;;;;;;;;;;;;;21.57;64.39;100407.41;7395141;19;1432;-44
2023/04/16 06:28:31;;;;;;;;;;;;;;;21.43;64.83;100404.31;7397324;19;1488;-44
2023/04/16 06:31:00;;;;;;;;;;;;;;;21.36;64.94;100387.09;7393297;19;1420;-43
2023/04/16 06:33:30;;;;;;;;;;;;;;;21.28;65.23;100405.03;7396882;19;1469;-44
2023/04/16 06:35:59;;;;;;;;;;;;;;;21.35;65.14;100412.31;7396338;19;1953;-44
2023/04/16 06:38:27;;;;;;;;;;;;;;;21.44;64.86;100403.31;7397643;19;1549;-44
2023/04/16 06:40:55;;;;;;;;;;;;;;;21.52;64.75;100407.88;7395572;19;1483;-44
2023/04/16 06:43:24;;;;;;;;;;;;;;;21.63;64.30;100412.16;7392981;19;1853;-44
2023/04/16 06:45:52;;;;;;;;;;;;;;;21.75;64.27;100405.47;7396509;19;1253;-44
2023/04/16 06:48:20;;;;;;;;;;;;;;;21.28;65.50;100418.50;7397362;19;1170;-45
2023/04/16 06:50:51;;;;;;;;;;;;;;;20.94;66.56;100420.09;7395853;19;1815;-45
2023/04/16 06:53:19;;;;;;;;;;;;;;;20.55;67.30;100423.13;7395681;19;1586;-45
2023/04/16 06:55:48;;;;;;;;;;;;;;;20.38;68.34;100426.66;7394939;19;1471;-45
2023/04/16 06:58:16;;;;;;;;;;;;;;;20.37;68.66;100420.44;7395444;19;1540;-45
2023/04/16 07:00:44;;;;;;;;;;;;;;;20.29;68.78;100414.13;7395962;19;1554;-44
2023/04/16 07:03:13;;;;;;;;;;;;;;;20.27;68.79;100407.09;7393548;19;1854;-44
2023/04/16 07:05:41;;;;;;;;;;;;;;;20.16;68.44;100418.03;7391794;19;1456;-47
2023/04/16 07:08:12;;;;;;;;;;;;;;;20.31;68.65;100420.19;7393835;19;1379;-47
2023/04/16 07:10:40;;;;;;;;;;;;;;;20.36;67.75;100412.53;7395887;19;1464;-48
2023/04/16 07:13:08;;;;;;;;;;;;;;;20.43;67.54;100413.59;7395545;19;1964;-47
2023/04/16 07:15:37;;;;;;;;;;;;;;;20.39;68.96;100417.59;7397375;19;1176;-49
2023/04/16 07:18:05;;;;;;;;;;;;;;;20.41;69.17;100427.19;7395584;19;1466;-49
2023/04/16 07:20:35;;;;;;;;;;;;;;;20.65;68.36;100423.91;7394631;19;1143;-47
2023/04/16 07:23:03;;;;;;;;;;;;;;;20.65;68.15;100423.91;7394240;19;1850;-47
2023/04/16 07:25:34;;;;;;;;;;;;;;;20.59;68.16;100415.63;7392097;19;1282;-47
2023/04/16 07:28:02;;;;;;;;;;;;;;;20.52;68.59;100418.06;7393896;19;1548;-47
2023/04/16 07:30:33;;;;;;;;;;;;;;;20.32;69.48;100427.25;7395768;19;1608;-47
2023/04/16 07:33:02;;;;;;;;;;;;;;;20.20;69.27;100419.41;7395197;19;1487;-46
2023/04/16 07:35:30;;;;;;;;;;;;;;;20.38;68.80;100410.53;7394259;19;1264;-47
2023/04/16 07:37:58;;;;;;;;;;;;;;;20.30;69.87;100418.53;7395802;19;1475;-47
2023/04/16 07:40:27;;;;;;;;;;;;;;;20.52;69.31;100412.69;7395712;19;1463;-46
2023/04/16 07:42:57;;;;;;;;;;;;;;;20.62;68.70;100410.78;7394450;19;1219;-47
2023/04/16 07:45:26;;;;;;;;;;;;;;;20.62;68.97;100412.63;7393887;19;1866;-47
2023/04/16 07:47:54;;;;;;;;;;;;;;;20.59;68.43;100404.88;7395844;19;1226;-47
2023/04/16 07:50:22;;;;;;;;;;;;;;;20.45;69.06;100401.72;7393860;19;1214;-43
2023/04/16 07:52:51;;;;;;;;;;;;;;;20.32;69.87;100395.03;7390318;19;1137;-43
2023/04/16 07:55:19;;;;;;;;;;;;;;;20.30;69.80;100405.94;7394211;19;1577;-44
2023/04/16 07:57:47;;;;;;;;;;;;;;;20.41;69.83;100400.34;7392217;19;1395;-43
2023/04/16 08:00:19;;;;;;;;;;;;;;;20.24;71.17;100398.50;7394204;19;1197;-44
2023/04/16 08:02:47;;;;;;;;;;;;;;;20.25;70.78;100406.41;7392327;19;1478;-43
2023/04/16 08:05:15;;;;;;;;;;;;;;;20.34;70.20;100401.94;7385883;19;1873;-44
2023/04/16 08:07:44;;;;;;;;;;;;;;;20.43;69.87;100397.47;7390833;19;1443;-43
2023/04/16 08:10:12;;;;;;;;;;;;;;;20.31;70.22;100414.81;7387988;19;1964;-43
2023/04/16 08:12:40;;;;;;;;;;;;;;;20.19;69.74;100407.00;7391520;19;1502;-43
2023/04/16 08:15:09;;;;;;;;;;;;;;;20.17;69.35;100400.91;7393405;19;1357;-44
2023/04/16 08:17:40;;;;;;;;;;;;;;;20.18;70.69;100404.47;7393033;19;1455;-43
2023/04/16 08:20:09;;;;;;;;;;;;;;;20.27;69.91;100403.53;7394516;19;1553;-44
2023/04/16 08:22:37;;;;;;;;;;;;;;;20.23;70.79;100407.53;7394104;19;1387;-44
2023/04/16 08:25:06;;;;;;;;;;;;;;;20.21;71.13;100412.19;7392496;19;1853;-44
2023/04/16 08:27:34;;;;;;;;;;;;;;;20.19;71.07;100395.41;7390476;19;1206;-44
2023/04/16 08:30:06;;;;;;;;;;;;;;;20.33;70.61;100412.81;7388646;19;1536;-44
2023/04/16 08:32:34;;;;;;;;;;;;;;;20.27;70.09;100404.41;7390886;19;1379;-44
2023/04/16 08:35:05;;;;;;;;;;;;;;;20.30;69.95;100407.78;7388651;19;1161;-44
2023/04/16 08:37:34;;;;;;;;;;;;;;;20.22;68.84;100412.06;7387456;19;1226;-44
2023/04/16 08:40:02;;;;;;;;;;;;;;;20.44;68.56;100408.06;7384844;19;1374;-44
2023/04/16 08:42:32;;;;;;;;;;;;;;;20.54;68.06;100393.72;7385055;19;1487;-44
2023/04/16 08:45:06;;;;;;;;;;;;;;;20.54;67.80;100409.84;7384472;19;1864;-43
2023/04/16 08:47:36;;;;;;;;;;;;;;;20.46;67.94;100395.34;7385158;19;1554;-44
2023/04/16 08:50:08;;;;;;;;;;;;;;;20.49;67.63;100404.09;7385498;19;1228;-44
2023/04/16 08:52:39;;;;;;;;;;;;;;;20.37;68.36;100400.78;7385245;19;1869;-44
2023/04/16 08:55:13;;;;;;;;;;;;;;;20.41;68.14;100410.22;7386599;19;1143;-44
2023/04/16 08:57:52;;;;;;;;;;;;;;;20.11;69.16;100398.84;7385423;19;1554;-44
2023/04/16 09:00:20;;;;;;;;;;;;;;;19.95;69.72;100404.88;7385294;19;1194;-44
2023/04/16 09:02:50;;;;;;;;;;;;;;;20.17;69.19;100392.88;7385457;19;1290;-43
2023/04/16 09:05:24;;;;;;;;;;;;;;;20.43;68.15;100392.09;7383311;19;1844;-44
2023/04/16 09:07:53;;;;;;;;;;;;;;;20.44;67.99;100381.22;7388804;19;1637;-43
2023/04/16 09:10:22;;;;;;;;;;;;;;;20.18;68.68;100388.38;7393652;19;1308;-44
2023/04/16 09:12:50;;;;;;;;;;;;;;;19.93;69.54;100395.31;7393802;19;1273;-44
2023/04/16 09:15:22;;;;;;;;;;;;;;;19.89;69.93;100402.81;7394761;19;1095;-44
2023/04/16 09:17:50;;;;;;;;;;;;;;;19.80;70.11;100396.50;7394416;19;1606;-43
2023/04/16 09:20:21;;;;;;;;;;;;;;;19.77;69.89;100399.47;7397298;19;1544;-44
2023/04/16 09:22:50;;;;;;;;;;;;;;;19.73;69.99;100382.00;7401215;19;1257;-43
2023/04/16 09:25:18;;;;;;;;;;;;;;;19.80;69.93;100377.72;7399184;19;1845;-44
2023/04/16 09:27:47;;;;;;;;;;;;;;;20.11;68.85;100381.91;7398317;19;1562;-44
2023/04/16 09:30:25;;;;;;;;;;;;;;;20.09;68.57;100365.94;7400824;19;1607;-43
2023/04/16 09:32:54;;;;;;;;;;;;;;;20.36;66.80;100374.94;7400644;19;1566;-44
2023/04/16 09:35:24;;;;;;;;;;;;;;;20.56;66.86;100365.72;7400762;19;1145;-43
2023/04/16 09:37:59;;;;;;;;;;;;;;;20.48;66.21;100372.88;7398689;19;1143;-44
2023/04/16 09:40:30;;;;;;;;;;;;;;;20.40;65.88;100379.84;7400206;19;1482;-44
2023/04/16 09:43:01;;;;;;;;;;;;;;;20.45;66.13;100366.81;7400701;19;1106;-44
2023/04/16 09:45:32;;;;;;;;;;;;;;;20.12;67.54;100370.19;7398372;19;2004;-44
2023/04/16 09:48:04;;;;;;;;;;;;;;;19.85;68.76;100353.94;7399316;19;1760;-43
2023/04/16 09:50:35;;;;;;;;;;;;;;;19.78;68.72;100379.72;7399762;19;1580;-44
2023/04/16 09:53:04;;;;;;;;;;;;;;;19.70;68.95;100352.75;7399187;19;1238;-44
2023/04/16 09:55:32;;;;;;;;;;;;;;;19.72;68.84;100366.06;7398923;19;1264;-44
2023/04/16 09:58:01;;;;;;;;;;;;;;;20.16;66.22;100358.97;7398724;19;1257;-43
2023/04/16 10:00:30;;;;;;;;;;;;;;;20.26;65.95;100353.53;7398974;19;1529;-44
2023/04/16 10:03:05;;;;;;;;;;;;;;;20.34;65.66;100355.44;7398898;19;1883;-44
2023/04/16 10:05:36;;;;;;;;;;;;;;;20.31;65.31;100345.84;7397352;19;1852;-43
2023/04/16 10:08:04;;;;;;;;;;;;;;;20.24;64.63;100351.00;7398218;19;1206;-44
2023/04/16 10:10:33;;;;;;;;;;;;;;;20.16;64.11;100345.56;7399797;19;1728;-43
2023/04/16 10:13:02;;;;;;;;;;;;;;;20.18;64.75;100340.03;7399098;19;1202;-43
2023/04/16 10:15:30;;;;;;;;;;;;;;;20.26;64.76;100321.31;7400212;19;1189;-44
2023/04/16 10:17:59;;;;;;;;;;;;;;;20.37;64.33;100333.63;7399458;19;1550;-44
2023/04/16 10:20:27;;;;;;;;;;;;;;;20.35;65.23;100333.81;7398666;19;1541;-43
2023/04/16 10:22:59;;;;;;;;;;;;;;;20.10;66.35;100335.44;7399414;19;1605;-44
2023/04/16 10:25:27;;;;;;;;;;;;;;;19.89;67.25;100337.56;7397360;19;1872;-44
2023/04/16 10:27:56;;;;;;;;;;;;;;;19.66;67.88;100319.19;7396425;19;1522;-43
2023/04/16 10:30:25;;;;;;;;;;;;;;;19.63;68.40;100351.66;7398966;19;1450;-44
2023/04/16 10:32:54;;;;;;;;;;;;;;;19.56;68.49;100324.59;7398978;19;1482;-44
2023/04/16 10:35:22;;;;;;;;;;;;;;;19.55;68.08;100338.16;7398848;19;1482;-44
2023/04/16 10:37:50;;;;;;;;;;;;;;;19.48;68.60;100332.56;7398573;19;1265;-44
2023/04/16 10:40:28;;;;;;;;;;;;;;;19.66;67.89;100328.06;7399411;19;1093;-43
2023/04/16 10:42:57;;;;;;;;;;;;;;;19.75;67.87;100328.19;7399032;19;1258;-44
2023/04/16 10:45:31;;;;;;;;;;;;;;;19.64;67.71;100348.84;7396558;19;1855;-44
2023/04/16 10:47:59;;;;;;;;;;;;;;;19.50;68.39;100340.44;7398203;19;1499;-43
2023/04/16 10:50:35;;;;;;;;;;;;;;;19.80;67.47;100336.63;7398252;19;1533;-43
2023/04/16 10:53:19;;;;;;;;;;;;;;;20.02;66.28;100340.72;7398334;19;1166;-44
2023/04/16 10:56:06;;;;;;;;;;;;;;;20.26;63.04;100338.25;7398333;19;1602;-43
2023/04/16 10:58:37;;;;;;;;;;;;;;;20.28;63.12;100356.91;7397000;19;1196;-44
2023/04/16 11:01:08;;;;;;;;;;;;;;;20.34;62.91;100375.09;7398105;19;1534;-44
2023/04/16 11:03:37;;;;;;;;;;;;;;;20.31;62.82;100359.25;7398726;19;1541;-44
2023/04/16 11:06:16;;;;;;;;;;;;;;;20.35;63.10;100355.31;7396612;19;1845;-44
2023/04/16 11:08:46;;;;;;;;;;;;;;;19.91;65.63;100359.72;7395506;19;1197;-44
2023/04/16 11:11:14;;;;;;;;;;;;;;;19.79;65.53;100364.44;7396014;19;1362;-44
2023/04/16 11:13:47;;;;;;;;;;;;;;;19.72;65.87;100361.53;7394056;19;1238;-44
2023/04/16 11:16:16;;;;;;;;;;;;;;;19.35;60.99;100365.06;7397461;19;1404;-45
2023/04/16 11:18:46;;;;;;;;;;;;;;;19.39;64.65;100373.66;7396048;19;1289;-44
2023/04/16 11:21:15;;;;;;;;;;;;;;;19.42;65.07;100376.91;7395973;19;1288;-43
2023/04/16 11:23:47;;;;;;;;;;;;;;;19.55;65.17;100359.63;7390862;19;1444;-46
2023/04/16 11:26:22;;;;;;;;;;;;;;;19.64;64.90;100390.91;7394554;19;1861;-46
2023/04/16 11:28:53;;;;;;;;;;;;;;;19.66;65.09;100378.19;7396052;19;1467;-47
2023/04/16 11:31:22;;;;;;;;;;;;;;;19.67;64.95;100369.16;7394649;19;1288;-47
2023/04/16 11:33:50;;;;;;;;;;;;;;;19.74;64.87;100370.28;7394105;19;1487;-46
2023/04/16 11:36:18;;;;;;;;;;;;;;;19.77;65.23;100356.53;7394420;19;1442;-46
2023/04/16 11:38:47;;;;;;;;;;;;;;;20.16;63.71;100353.59;7394718;19;1525;-46
2023/04/16 11:41:21;;;;;;;;;;;;;;;20.36;63.95;100353.47;7395376;19;1641;-46
2023/04/16 11:43:49;;;;;;;;;;;;;;;20.64;62.90;100347.00;7393069;19;1514;-46
2023/04/16 11:46:20;;;;;;;;;;;;;;;21.03;62.08;100330.47;6868435;19;9999773;-46
2023/04/16 11:48:52;;;;;;;;;;;;;;;21.48;61.41;100330.34;7387679;19;1537;-46
2023/04/16 11:51:22;;;;;;;;;;;;;;;21.33;61.78;100325.56;7388257;19;1538;-46
2023/04/16 11:53:54;;;;;;;;;;;;;;;20.90;62.85;100316.59;7388496;19;1533;-46
2023/04/16 11:56:29;;;;;;;;;;;;;;;20.60;63.96;100318.75;7387802;19;1528;-46
2023/04/16 11:59:13;;;;;;;;;;;;;;;20.48;64.54;100314.59;7385103;19;1640;-46
2023/04/16 12:01:45;;;;;;;;;;;;;;;20.42;64.99;100305.31;7388571;19;1402;-46
2023/04/16 12:04:14;;;;;;;;;;;;;;;20.77;64.15;100300.03;7387446;19;1649;-46
2023/04/16 12:06:43;;;;;;;;;;;;;;;21.07;63.44;100306.78;7386366;19;1845;-46
2023/04/16 12:09:27;;;;;;;;;;;;;;;20.94;63.88;100293.78;7387495;19;1504;-46
2023/04/16 12:11:55;;;;;;;;;;;;;;;20.61;64.79;100292.72;7390656;19;1529;-46
2023/04/16 12:14:24;;;;;;;;;;;;;;;20.43;64.90;100306.16;7388868;19;1075;-46
2023/04/16 12:16:55;;;;;;;;;;;;;;;20.57;65.20;100278.75;7386759;19;1976;-45
2023/04/16 12:19:23;;;;;;;;;;;;;;;21.11;63.62;100270.53;7385892;19;1936;-45
2023/04/16 12:21:53;;;;;;;;;;;;;;;21.27;62.99;100261.69;7387284;19;1617;-45
2023/04/16 12:24:23;;;;;;;;;;;;;;;20.89;64.03;100279.13;7385525;19;1466;-45
2023/04/16 12:26:54;;;;;;;;;;;;;;;20.79;64.02;100265.81;7385218;19;1857;-45
2023/04/16 12:29:24;;;;;;;;;;;;;;;20.61;64.90;100273.91;7385094;19;1434;-45
2023/04/16 12:31:55;;;;;;;;;;;;;;;20.67;65.29;100267.91;7385161;19;1470;-43
2023/04/16 12:34:23;;;;;;;;;;;;;;;21.05;63.79;100280.06;7383899;19;1402;-43
2023/04/16 12:37:08;;;;;;;;;;;;;;;21.03;63.42;100265.09;7384245;19;1431;-43
2023/04/16 12:39:36;;;;;;;;;;;;;;;20.71;64.06;100261.25;7386925;19;1566;-43
2023/04/16 12:42:08;;;;;;;;;;;;;;;20.54;65.01;100264.78;7387343;19;1470;-43
2023/04/16 12:44:36;;;;;;;;;;;;;;;20.34;65.70;100264.16;7384185;19;2171;-43
2023/04/16 12:47:07;;;;;;;;;;;;;;;20.42;65.83;100270.41;7383602;19;1869;-43
2023/04/16 12:49:37;;;;;;;;;;;;;;;20.91;64.45;100256.47;7385370;19;1419;-43
2023/04/16 12:52:05;;;;;;;;;;;;;;;20.86;62.09;100254.25;7386128;19;1841;-43
2023/04/16 12:54:34;;;;;;;;;;;;;;;20.73;63.28;100279.88;7389043;19;1592;-43
2023/04/16 12:57:02;;;;;;;;;;;;;;;20.51;64.71;100260.56;7394771;19;1127;-43